Terminal Aerodrome Forecast
Issued by NWS

Home | Current Version | Previous Version | Text Only | Print | Product List | Glossary On
Versions: 1 2 3 4 5 6 7 8 9 10 11 12 13 14 15 16 17 18 19 20 21 22 23 24 25
499
FTUS43 KAPX 231245 AAB
TAFMBL
TAF AMD
KMBL 231245Z 2313/2412 00000KT 1/2SM FG OVC002
      TEMPO 2313/2314 1/4SM FG
     FM231400 VRB03KT 1SM BR OVC003
     FM231600 35004KT 2SM -DZ BR OVC008
     FM240000 33004KT 3SM BR OVC003
     FM240700 32004KT 1SM BR OVC003=

USA.gov is the U.S. government's official web portal to all federal, state and local government web resources and services.